| time (UTC) | temp C | wind direction | speed KPH | gust KPH | rain 1hr cm | rain 24hr cm | rain mn cm | humidity % | barometer mb |
| 20260503072437 | 21 | 309 | 4.8 | 8.0 | 0.00 | 0.00 | 0.00 | 99 | 1017.0 |
| 20260503071934 | 21 | 294 | 6.4 | 11.3 | 0.00 | 0.00 | 0.00 | 99 | 1017.1 |
| 20260503071431 | 21 | 353 | 4.8 | 8.0 | 0.00 | 0.00 | 0.00 | 99 | 1017.1 |
| 20260503070927 | 21 | 321 | 6.4 | 8.0 | 0.00 | 0.00 | 0.00 | 99 | 1017.2 |
| 20260503070424 | 21 | 287 | 6.4 | 9.7 | 0.00 | 0.00 | 0.00 | 99 | 1017.3 |
| 20260503054838 | 21 | 282 | 3.2 | 4.8 | 0.00 | 0.00 | 0.00 | 99 | 1017.6 |
| 20260503054334 | 21 | 125 | 1.6 | 3.2 | 0.00 | 0.00 | 0.00 | 99 | 1017.6 |
| 20260503053832 | 21 | 121 | 3.2 | 4.8 | 0.00 | 0.00 | 0.00 | 99 | 1017.6 |
| 20260503053330 | 21 | 296 | 3.2 | 4.8 | 0.00 | 0.00 | 0.00 | 99 | 1017.6 |
| 20260503052826 | 21 | 316 | 3.2 | 4.8 | 0.00 | 0.00 | 0.00 | 99 | 1017.7 |
| 20260503052323 | 21 | 187 | 1.6 | 8.0 | 0.00 | 0.00 | 0.00 | 99 | 1018.1 |
| 20260503051819 | 21 | 54 | 1.6 | 9.7 | 0.00 | 0.00 | 0.00 | 99 | 1017.8 |
| 20260503051316 | 21 | 326 | 3.2 | 3.2 | 0.00 | 0.00 | 0.00 | 99 | 1018.1 |
| 20260503050812 | 21 | 94 | 1.6 | 4.8 | 0.00 | 0.00 | 0.00 | 99 | 1018.1 |
| 20260503050309 | 21 | 51 | 1.6 | 3.2 | 0.00 | 0.00 | 0.00 | 99 | 1018.3 |
| 20260503045807 | 20 | 101 | 0.0 | 3.2 | 0.00 | 0.00 | 0.00 | 99 | 1018.4 |
| 20260503045305 | 20 | 240 | 1.6 | 4.8 | 0.00 | 0.00 | 0.00 | 99 | 1018.3 |
| 20260503044800 | 20 | 114 | 0.0 | 3.2 | 0.00 | 0.00 | 0.00 | 99 | 1018.3 |
| 20260503044257 | 20 | 106 | 1.6 | 1.6 | 0.00 | 0.00 | 0.00 | 99 | 1018.4 |
| 20260503043755 | 20 | 116 | 0.0 | 1.6 | 0.00 | 0.00 | 0.00 | 99 | 1018.4 |
| 20260503043252 | 20 | 172 | 4.8 | 4.8 | 0.00 | 0.00 | 0.00 | 99 | 1018.2 |
| 20260503042747 | 20 | 147 | 1.6 | 4.8 | 0.00 | 0.00 | 0.00 | 99 | 1018.2 |
| 20260503042244 | 21 | 110 | 0.0 | 3.2 | 0.00 | 0.00 | 0.00 | 99 | 1018.3 |
| 20260503041740 | 21 | 120 | 1.6 | 3.2 | 0.00 | 0.00 | 0.00 | 99 | 1018.2 |
| 20260503041238 | 21 | 127 | 1.6 | 4.8 | 0.00 | 0.00 | 0.00 | 99 | 1018.2 |
| 20260503040736 | 21 | 109 | 0.0 | 1.6 | 0.00 | 0.00 | 0.00 | 99 | 1018.0 |
| 20260503040233 | 21 | 191 | 1.6 | 1.6 | 0.00 | 0.00 | 0.00 | 99 | 1017.8 |
| 20260503035729 | 21 | 144 | 1.6 | 3.2 | 0.00 | 0.15 | 0.15 | 99 | 1017.9 |
| 20260503035227 | 21 | 161 | 1.6 | 4.8 | 0.00 | 0.15 | 0.15 | 99 | 1017.8 |
| 20260503034724 | 21 | 153 | 3.2 | 3.2 | 0.00 | 0.15 | 0.15 | 99 | 1017.6 |
| 20260503034221 | 21 | 320 | 3.2 | 4.8 | 0.00 | 0.15 | 0.15 | 99 | 1017.9 |
| 20260503033719 | 21 | 149 | 3.2 | 4.8 | 0.00 | 0.15 | 0.15 | 99 | 1017.7 |
| 20260503033216 | 21 | 150 | 1.6 | 1.6 | 0.00 | 0.15 | 0.15 | 99 | 1017.2 |
| 20260503032714 | 21 | 138 | 1.6 | 3.2 | 0.00 | 0.15 | 0.15 | 99 | 1017.2 |
| 20260503032213 | 21 | 71 | 1.6 | 1.6 | 0.00 | 0.15 | 0.15 | 99 | 1017.3 |
| 20260503031709 | 21 | 82 | 1.6 | 3.2 | 0.18 | 0.15 | 0.15 | 99 | 1016.8 |
| 20260503031208 | 21 | 34 | 4.8 | 9.7 | 0.18 | 0.15 | 0.15 | 99 | 1017.1 |
| 20260503030703 | 21 | 52 | 3.2 | 3.2 | 0.00 | 0.13 | 0.13 | 99 | 1016.8 |
| 20260503030200 | 21 | 61 | 1.6 | 3.2 | 0.00 | 0.13 | 0.13 | 99 | 1016.9 |
| 20260503025657 | 20 | 181 | 3.2 | 4.8 | 0.00 | 0.13 | 0.13 | 99 | 1016.9 |
| 20260503025154 | 20 | 290 | 4.8 | 9.7 | 0.00 | 0.13 | 0.13 | 99 | 1017.1 |
| 20260503024650 | 21 | 284 | 3.2 | 8.0 | 0.00 | 0.13 | 0.13 | 99 | 1017.0 |
| 20260503024148 | 21 | 219 | 6.4 | 11.3 | 0.00 | 0.13 | 0.13 | 99 | 1017.1 |
| 20260503023645 | 21 | 216 | 6.4 | 9.7 | 0.00 | 0.13 | 0.13 | 99 | 1017.3 |
| 20260503023142 | 21 | 269 | 6.4 | 9.7 | 0.00 | 0.13 | 0.13 | 99 | 1017.2 |
| 20260503022637 | 21 | 348 | 6.4 | 11.3 | 0.00 | 0.13 | 0.13 | 99 | 1017.2 |
| 20260503022132 | 21 | 23 | 6.4 | 11.3 | 0.00 | 0.13 | 0.13 | 99 | 1016.8 |
| 20260503021629 | 21 | 194 | 6.4 | 8.0 | 0.00 | 0.13 | 0.13 | 99 | 1016.7 |
| 20260503021126 | 21 | 304 | 6.4 | 12.9 | 0.00 | 0.13 | 0.13 | 99 | 1016.7 |
| 20260503020623 | 21 | 270 | 4.8 | 8.0 | 0.00 | 0.13 | 0.13 | 99 | 1016.6 |
| 20260503020120 | 21 | 286 | 8.0 | 9.7 | 0.00 | 0.13 | 0.13 | 99 | 1016.3 |
| 20260503015617 | 21 | 288 | 4.8 | 8.0 | 0.00 | 0.13 | 0.13 | 99 | 1015.9 |
| 20260503015114 | 20 | 115 | 1.6 | 3.2 | 0.00 | 0.13 | 0.13 | 99 | 1015.1 |
| 20260503014609 | 21 | 243 | 4.8 | 8.0 | 0.00 | 0.13 | 0.13 | 99 | 1015.7 |
| 20260503014108 | 20 | 130 | 3.2 | 3.2 | 0.00 | 0.13 | 0.13 | 99 | 1015.7 |
| 20260503013605 | 20 | 101 | 1.6 | 8.0 | 0.00 | 0.13 | 0.13 | 99 | 1015.6 |
| 20260503013103 | 20 | 109 | 3.2 | 8.0 | 0.00 | 0.13 | 0.13 | 99 | 1015.6 |
| 20260503012600 | 20 | 239 | 6.4 | 9.7 | 0.00 | 0.13 | 0.13 | 99 | 1015.4 |
| 20260503012056 | 20 | 229 | 6.4 | 9.7 | 0.00 | 0.13 | 0.13 | 99 | 1015.3 |
| 20260503011552 | 20 | 218 | 4.8 | 8.0 | 0.00 | 0.13 | 0.13 | 99 | 1015.5 |
| 20260503011050 | 21 | 153 | 4.8 | 8.0 | 0.00 | 0.13 | 0.13 | 99 | 1015.7 |
| 20260503010546 | 21 | 121 | 3.2 | 4.8 | 0.00 | 0.13 | 0.13 | 99 | 1015.3 |
| 20260503010044 | 21 | 206 | 4.8 | 11.3 | 0.00 | 0.13 | 0.13 | 99 | 1015.5 |
| 20260503005541 | 21 | 135 | 1.6 | 8.0 | 0.00 | 0.13 | 0.13 | 99 | 1015.2 |
| 20260503005038 | 21 | 182 | 4.8 | 4.8 | 0.00 | 0.13 | 0.13 | 99 | 1015.3 |
| 20260503004534 | 21 | 100 | 3.2 | 4.8 | 0.00 | 0.13 | 0.13 | 99 | 1015.1 |
| 20260503004032 | 21 | 116 | 1.6 | 4.8 | 0.00 | 0.13 | 0.13 | 99 | 1015.4 |
| 20260503003529 | 21 | 129 | 1.6 | 4.8 | 0.00 | 0.13 | 0.13 | 99 | 1015.4 |
| 20260503003026 | 21 | 154 | 3.2 | 4.8 | 0.00 | 0.13 | 0.13 | 99 | 1015.5 |
| 20260503002523 | 21 | 154 | 3.2 | 4.8 | 0.00 | 0.13 | 0.13 | 99 | 1015.7 |
| 20260503002020 | 21 | 148 | 1.6 | 3.2 | 0.00 | 0.13 | 0.13 | 99 | 1015.8 |
| 20260503001516 | 21 | 259 | 1.6 | 3.2 | 0.00 | 0.13 | 0.13 | 99 | 1015.8 |
| 20260503001013 | 21 | 240 | 4.8 | 8.0 | 0.00 | 0.13 | 0.13 | 99 | 1015.9 |
| 20260503000511 | 21 | 110 | 0.0 | 4.8 | 0.00 | 0.13 | 0.13 | 99 | 1016.0 |
| 20260503000008 | 21 | 147 | 3.2 | 4.8 | 0.00 | 0.13 | 0.13 | 99 | 1015.8 |
| 20260502235504 | 21 | 8 | 3.2 | 8.0 | 0.00 | 0.13 | 0.13 | 99 | 1016.3 |
| 20260502235002 | 21 | 183 | 4.8 | 9.7 | 0.00 | 0.13 | 0.13 | 99 | 1016.2 |
| 20260502234458 | 21 | 267 | 3.2 | 9.7 | 0.00 | 0.13 | 0.13 | 99 | 1016.0 |
| 20260502233955 | 21 | 250 | 6.4 | 9.7 | 0.00 | 0.13 | 0.13 | 99 | 1016.1 |
| 20260502233450 | 21 | 287 | 4.8 | 8.0 | 0.00 | 0.13 | 0.13 | 99 | 1016.0 |
| 20260502232947 | 21 | 240 | 6.4 | 8.0 | 0.00 | 0.13 | 0.13 | 99 | 1015.5 |
| 20260502232444 | 21 | 101 | 3.2 | 3.2 | 0.00 | 0.13 | 0.13 | 98 | 1015.3 |
| 20260502231941 | 21 | 204 | 1.6 | 3.2 | 0.00 | 0.13 | 0.13 | 98 | 1015.6 |
| 20260502231438 | 21 | 97 | 0.0 | 3.2 | 0.00 | 0.13 | 0.13 | 97 | 1015.5 |
| 20260502230936 | 21 | 77 | 3.2 | 3.2 | 0.00 | 0.13 | 0.13 | 97 | 1015.4 |
| 20260502230434 | 21 | 132 | 4.8 | 8.0 | 0.13 | 0.13 | 0.13 | 96 | 1015.6 |
| 20260502225932 | 21 | 308 | 8.0 | 11.3 | 0.71 | 0.13 | 0.13 | 95 | 1015.7 |
| 20260502225427 | 22 | 305 | 12.9 | 17.7 | 0.61 | 0.10 | 0.10 | 93 | 1016.0 |
| 20260502224925 | 22 | 299 | 6.4 | 12.9 | 0.00 | 0.00 | 0.00 | 91 | 1015.8 |
| 20260502224420 | 22 | 206 | 8.0 | 14.5 | 0.00 | 0.00 | 0.00 | 89 | 1015.8 |
| 20260502223918 | 23 | 324 | 9.7 | 17.7 | 0.00 | 0.00 | 0.00 | 86 | 1015.7 |
| 20260502223416 | 24 | 307 | 11.3 | 33.8 | 0.00 | 0.00 | 0.00 | 80 | 1015.9 |
| 20260502222914 | 25 | 297 | 20.9 | 27.4 | 0.00 | 0.00 | 0.00 | 76 | 1016.0 |
| 20260502222410 | 26 | 315 | 16.1 | 25.7 | 0.00 | 0.00 | 0.00 | 75 | 1015.3 |
| 20260502221905 | 28 | 301 | 17.7 | 27.4 | 0.00 | 0.00 | 0.00 | 72 | 1015.2 |
| 20260502221402 | 28 | 257 | 8.0 | 14.5 | 0.00 | 0.00 | 0.00 | 68 | 1014.9 |
| 20260502220859 | 28 | 286 | 12.9 | 14.5 | 0.00 | 0.00 | 0.00 | 70 | 1014.8 |
| 20260502220355 | 28 | 295 | 8.0 | 14.5 | 0.00 | 0.00 | 0.00 | 70 | 1014.7 |
| 20260502215852 | 28 | 331 | 8.0 | 16.1 | 0.00 | 0.00 | 0.00 | 70 | 1014.6 |
| 20260502215350 | 29 | 163 | 3.2 | 11.3 | 0.00 | 0.00 | 0.00 | 69 | 1014.4 |
| 20260502214846 | 29 | 332 | 6.4 | 9.7 | 0.00 | 0.00 | 0.00 | 68 | 1014.4 |
| 20260502214343 | 29 | 269 | 8.0 | 11.3 | 0.00 | 0.00 | 0.00 | 68 | 1014.4 |
| 20260502213840 | 30 | 202 | 8.0 | 11.3 | 0.00 | 0.00 | 0.00 | 67 | 1014.1 |
| 20260502213337 | 30 | 223 | 9.7 | 11.3 | 0.00 | 0.00 | 0.00 | 66 | 1014.2 |
| 20260502212836 | 30 | 150 | 6.4 | 14.5 | 0.00 | 0.00 | 0.00 | 66 | 1014.0 |
| 20260502212334 | 30 | 244 | 8.0 | 11.3 | 0.00 | 0.00 | 0.00 | 65 | 1014.0 |
| 20260502211831 | 30 | 330 | 9.7 | 12.9 | 0.00 | 0.00 | 0.00 | 65 | 1014.1 |
| 20260502211326 | 30 | 290 | 14.5 | 17.7 | 0.00 | 0.00 | 0.00 | 64 | 1014.0 |
| 20260502210824 | 30 | 160 | 4.8 | 14.5 | 0.00 | 0.00 | 0.00 | 63 | 1014.0 |
| 20260502210321 | 30 | 247 | 12.9 | 14.5 | 0.00 | 0.00 | 0.00 | 62 | 1014.0 |
| 20260502205818 | 30 | 193 | 12.9 | 17.7 | 0.00 | 0.00 | 0.00 | 61 | 1013.9 |
| 20260502205314 | 31 | 292 | 14.5 | 17.7 | 0.00 | 0.00 | 0.00 | 60 | 1014.1 |
| 20260502204811 | 31 | 279 | 12.9 | 25.7 | 0.00 | 0.00 | 0.00 | 58 | 1014.1 |
| 20260502204309 | 31 | 267 | 4.8 | 16.1 | 0.00 | 0.00 | 0.00 | 58 | 1013.8 |
| 20260502203806 | 31 | 297 | 9.7 | 17.7 | 0.00 | 0.00 | 0.00 | 56 | 1013.8 |
| 20260502203304 | 31 | 258 | 9.7 | 17.7 | 0.00 | 0.00 | 0.00 | 57 | 1014.0 |
| 20260502202803 | 31 | 265 | 9.7 | 20.9 | 0.00 | 0.00 | 0.00 | 58 | 1014.1 |
| 20260502202304 | 31 | 293 | 11.3 | 24.1 | 0.00 | 0.00 | 0.00 | 58 | 1014.0 |
| 20260502201759 | 31 | 302 | 16.1 | 22.5 | 0.00 | 0.00 | 0.00 | 57 | 1013.8 |
| 20260502201255 | 31 | 242 | 16.1 | 20.9 | 0.00 | 0.00 | 0.00 | 55 | 1013.9 |
| 20260502200751 | 31 | 218 | 11.3 | 25.7 | 0.00 | 0.00 | 0.00 | 56 | 1014.0 |
| 20260502200247 | 31 | 295 | 8.0 | 17.7 | 0.00 | 0.00 | 0.00 | 55 | 1013.8 |
| 20260502195746 | 31 | 271 | 12.9 | 17.7 | 0.00 | 0.00 | 0.00 | 54 | 1013.9 |
| 20260502195242 | 32 | 263 | 14.5 | 20.9 | 0.00 | 0.00 | 0.00 | 53 | 1014.0 |
| 20260502194738 | 32 | 241 | 8.0 | 22.5 | 0.00 | 0.00 | 0.00 | 53 | 1014.0 |
| 20260502194236 | 32 | 205 | 12.9 | 20.9 | 0.00 | 0.00 | 0.00 | 53 | 1014.2 |
| 20260502193731 | 32 | 257 | 16.1 | 25.7 | 0.00 | 0.00 | 0.00 | 53 | 1014.2 |
| 20260502193229 | 32 | 216 | 17.7 | 22.5 | 0.00 | 0.00 | 0.00 | 55 | 1014.2 |
| 20260502192729 | 32 | 296 | 17.7 | 24.1 | 0.00 | 0.00 | 0.00 | 55 | 1014.3 |
| 20260502192227 | 32 | 268 | 9.7 | 16.1 | 0.00 | 0.00 | 0.00 | 56 | 1014.2 |
| 20260502191723 | 32 | 281 | 12.9 | 20.9 | 0.00 | 0.00 | 0.00 | 56 | 1014.5 |
| 20260502191221 | 32 | 288 | 11.3 | 17.7 | 0.00 | 0.00 | 0.00 | 55 | 1014.4 |
| 20260502190718 | 32 | 264 | 9.7 | 17.7 | 0.00 | 0.00 | 0.00 | 56 | 1014.3 |
| 20260502190216 | 32 | 284 | 16.1 | 25.7 | 0.00 | 0.00 | 0.00 | 55 | 1014.5 |
| 20260502185715 | 32 | 146 | 9.7 | 24.1 | 0.00 | 0.00 | 0.00 | 54 | 1014.4 |
| 20260502185212 | 32 | 297 | 22.5 | 25.7 | 0.00 | 0.00 | 0.00 | 53 | 1014.5 |
| 20260502184708 | 32 | 223 | 12.9 | 20.9 | 0.00 | 0.00 | 0.00 | 54 | 1014.5 |
| 20260502184204 | 32 | 254 | 11.3 | 24.1 | 0.00 | 0.00 | 0.00 | 54 | 1014.5 |
| 20260502183701 | 32 | 276 | 20.9 | 27.4 | 0.00 | 0.00 | 0.00 | 53 | 1014.6 |
| 20260502183157 | 32 | 207 | 11.3 | 22.5 | 0.00 | 0.00 | 0.00 | 52 | 1014.8 |
| 20260502182652 | 32 | 243 | 12.9 | 27.4 | 0.00 | 0.00 | 0.00 | 53 | 1014.9 |
| 20260502182148 | 32 | 298 | 20.9 | 29.0 | 0.00 | 0.00 | 0.00 | 53 | 1014.7 |
| 20260502181646 | 32 | 250 | 19.3 | 25.7 | 0.00 | 0.00 | 0.00 | 52 | 1014.8 |
| 20260502181145 | 32 | 308 | 11.3 | 25.7 | 0.00 | 0.00 | 0.00 | 53 | 1014.8 |
| 20260502180641 | 32 | 297 | 8.0 | 25.7 | 0.00 | 0.00 | 0.00 | 51 | 1014.6 |
| 20260502180138 | 32 | 236 | 14.5 | 20.9 | 0.00 | 0.00 | 0.00 | 51 | 1014.5 |
| 20260502164049 | 31 | 247 | 19.3 | 24.1 | 0.00 | 0.00 | 0.00 | 62 | 1015.2 |
| 20260502163545 | 31 | 204 | 11.3 | 22.5 | 0.00 | 0.00 | 0.00 | 64 | 1015.3 |
| 20260502163042 | 31 | 150 | 3.2 | 14.5 | 0.00 | 0.00 | 0.00 | 66 | 1015.1 |
| 20260502162539 | 31 | 165 | 6.4 | 25.7 | 0.00 | 0.00 | 0.00 | 67 | 1015.4 |
| 20260502162036 | 31 | 271 | 11.3 | 22.5 | 0.00 | 0.00 | 0.00 | 66 | 1015.1 |
| 20260502161533 | 31 | 330 | 11.3 | 24.1 | 0.00 | 0.00 | 0.00 | 66 | 1015.3 |
| 20260502161031 | 31 | 290 | 9.7 | 17.7 | 0.00 | 0.00 | 0.00 | 65 | 1015.2 |
| 20260502160528 | 31 | 262 | 11.3 | 17.7 | 0.00 | 0.00 | 0.00 | 64 | 1015.2 |
| 20260502151924 | 31 | 246 | 9.7 | 12.9 | 0.00 | 0.00 | 0.00 | 68 | 1015.1 |
| 20260502151420 | 30 | 40 | 4.8 | 14.5 | 0.00 | 0.00 | 0.00 | 69 | 1015.4 |
| 20260502150918 | 30 | 226 | 9.7 | 17.7 | 0.00 | 0.00 | 0.00 | 70 | 1015.0 |
| 20260502150415 | 30 | 235 | 8.0 | 20.9 | 0.00 | 0.00 | 0.00 | 70 | 1015.1 |
| 20260502130301 | 26 | 170 | 8.0 | 9.7 | 0.00 | 0.00 | 0.00 | 88 | 1014.8 |
| 20260502123746 | 24 | 176 | 4.8 | 9.7 | 0.00 | 0.00 | 0.00 | 90 | 1014.7 |
| 20260502123243 | 23 | 195 | 6.4 | 9.7 | 0.00 | 0.00 | 0.00 | 91 | 1014.8 |
| 20260502122739 | 23 | 133 | 3.2 | 12.9 | 0.00 | 0.00 | 0.00 | 92 | 1014.6 |
| 20260502122236 | 23 | 114 | 1.6 | 11.3 | 0.00 | 0.00 | 0.00 | 93 | 1014.8 |
| 20260502121734 | 22 | 104 | 3.2 | 4.8 | 0.00 | 0.00 | 0.00 | 95 | 1014.9 |
| 20260502121232 | 22 | 285 | 6.4 | 9.7 | 0.00 | 0.00 | 0.00 | 96 | 1014.9 |
| 20260502120728 | 21 | 129 | 1.6 | 9.7 | 0.00 | 0.00 | 0.00 | 98 | 1014.6 |
| 20260502120225 | 21 | 135 | 3.2 | 4.8 | 0.00 | 0.00 | 0.00 | 99 | 1014.5 |
| 20260502115723 | 21 | 138 | 3.2 | 8.0 | 0.00 | 0.00 | 0.00 | 99 | 1014.7 |
| 20260502115219 | 21 | 170 | 3.2 | 8.0 | 0.00 | 0.00 | 0.00 | 99 | 1014.8 |
| 20260502114715 | 20 | 122 | 1.6 | 3.2 | 0.00 | 0.00 | 0.00 | 99 | 1014.7 |
| 20260502114213 | 20 | 132 | 1.6 | 1.6 | 0.00 | 0.00 | 0.00 | 99 | 1014.8 |
| 20260502113709 | 20 | 180 | 3.2 | 3.2 | 0.00 | 0.00 | 0.00 | 99 | 1014.7 |
| 20260502113207 | 20 | 148 | 1.6 | 4.8 | 0.00 | 0.00 | 0.00 | 99 | 1014.8 |
| 20260502112705 | 19 | 127 | 0.0 | 3.2 | 0.00 | 0.00 | 0.00 | 99 | 1014.6 |
| 20260502112203 | 19 | 108 | 0.0 | 3.2 | 0.00 | 0.00 | 0.00 | 99 | 1014.9 |
| 20260502111700 | 18 | 125 | 1.6 | 1.6 | 0.00 | 0.00 | 0.00 | 99 | 1014.9 |
| 20260502111157 | 18 | 144 | 1.6 | 3.2 | 0.00 | 0.00 | 0.00 | 99 | 1014.9 |
| 20260502110655 | 18 | 189 | 1.6 | 3.2 | 0.00 | 0.00 | 0.00 | 99 | 1014.9 |
| 20260502110152 | 18 | 136 | 1.6 | 1.6 | 0.00 | 0.00 | 0.00 | 99 | 1014.6 |
| 20260502105649 | 18 | 112 | 0.0 | 1.6 | 0.00 | 0.00 | 0.00 | 99 | 1014.7 |
| 20260502105146 | 18 | 140 | 0.0 | 0.0 | 0.00 | 0.00 | 0.00 | 99 | 1014.6 |
| 20260502104643 | 18 | 141 | 1.6 | 3.2 | 0.00 | 0.00 | 0.00 | 99 | 1014.8 |
| 20260502104141 | 18 | 112 | 0.0 | 0.0 | 0.00 | 0.00 | 0.00 | 99 | 1014.7 |
| 20260502103638 | 18 | 117 | 0.0 | 0.0 | 0.00 | 0.00 | 0.00 | 99 | 1014.8 |
| 20260502103136 | 18 | 116 | 0.0 | 0.0 | 0.00 | 0.00 | 0.00 | 99 | 1014.7 |
| 20260502102633 | 18 | 121 | 0.0 | 0.0 | 0.00 | 0.00 | 0.00 | 99 | 1014.8 |
| 20260502102129 | 18 | 116 | 1.6 | 3.2 | 0.00 | 0.00 | 0.00 | 99 | 1014.8 |
| 20260502101627 | 18 | 121 | 0.0 | 0.0 | 0.00 | 0.00 | 0.00 | 99 | 1015.0 |
| 20260502101125 | 18 | 107 | 0.0 | 0.0 | 0.00 | 0.00 | 0.00 | 99 | 1015.0 |
| 20260502100624 | 18 | 138 | 1.6 | 1.6 | 0.00 | 0.00 | 0.00 | 99 | 1015.0 |
| 20260502100122 | 18 | 112 | 0.0 | 3.2 | 0.00 | 0.00 | 0.00 | 99 | 1015.2 |
| 20260502091055 | 19 | 128 | 3.2 | 3.2 | 0.00 | 0.00 | 0.00 | 99 | 1015.1 |
| 20260502090552 | 19 | 162 | 1.6 | 3.2 | 0.00 | 0.00 | 0.00 | 99 | 1015.2 |